Home > Products > Valid Products > TAF

000
FTUS41 KLWX 210458 AAC
TAFIAD
TAF AMD
KIAD 210458Z 2105/2206 34008KT 5SM -SHRA VCTS BKN040CB
     FM210530 25010KT P6SM BKN100
     FM210800 29011KT P6SM SCT070
     FM211300 29013G22KT P6SM SCT090
     FM220000 25007KT P6SM SCT100=



000
FTUS41 KLWX 210458 AAD
TAFDCA
TAF AMD
KDCA 210458Z 2105/2124 31015KT 4SM -TSRA BKN035CB
     FM210600 27010KT P6SM BKN100
     FM211100 30010KT P6SM SCT060
     FM211400 28012G20KT P6SM SCT090=



000
FTUS41 KLWX 210458 AAE
TAFBWI
TAF AMD
KBWI 210458Z 2105/2206 29015KT 5SM -TSRA BKN035CB
     FM210600 27007KT P6SM VCSH SCT060
     FM211100 29011KT P6SM SCT060
     FM211400 27013G22KT P6SM SCT090
     FM220000 26007KT P6SM SCT120=



000
FTUS41 KLWX 210441 AAC
TAFDCA
TAF AMD
KDCA 210441Z 2105/2124 29015KT P6SM -SHRA VCTS BKN050CB
     FM210600 27010KT P6SM BKN100
     FM211100 30010KT P6SM SCT060
     FM211400 28012G20KT P6SM SCT090=



000
FTUS41 KLWX 210441 AAD
TAFBWI
TAF AMD
KBWI 210441Z 2105/2206 29015KT P6SM -SHRA BKN050
     FM210700 27007KT P6SM SCT060
     FM211100 29011KT P6SM SCT060
     FM211400 27013G22KT P6SM SCT090
     FM220000 26007KT P6SM SCT120=



000
FTUS41 KLWX 210356 AAB
TAFIAD
TAF AMD
KIAD 210356Z 2104/2206 19006KT P6SM VCSH SCT060
     FM210430 19015KT 4SM -TSRA BR BKN040CB
     FM210530 25010KT P6SM BKN100
     FM210800 29011KT P6SM SCT070
     FM211300 29013G22KT P6SM SCT090
     FM220000 25007KT P6SM SCT100=



000
FTUS41 KLWX 210256 AAC
TAFBWI
TAF AMD
KBWI 210256Z 2103/2206 18006KT P6SM -SHRA SCT060
     FM210400 21008KT P6SM SCT070
     FM210700 27007KT P6SM SCT060
     FM211100 29011KT P6SM SCT060
     FM211400 27013G22KT P6SM SCT090
     FM220000 26007KT P6SM SCT120=



000
FTUS41 KLWX 210254 AAB
TAFDCA
TAF AMD
KDCA 210254Z 2103/2124 20009KT P6SM VCSH SCT050
     FM210500 26007KT P6SM BKN040
     FM211100 30010KT P6SM SCT060
     FM211400 28012G20KT P6SM SCT090=



000
FTUS41 KLWX 210254 AAA
TAFIAD
TAF AMD
KIAD 210254Z 2103/2206 20010G18KT P6SM VCSH SCT060
     FM210500 24009KT P6SM BKN060
     FM210800 29011KT P6SM SCT070
     FM211300 29013G22KT P6SM SCT090
     FM220000 25007KT P6SM SCT100=



000
FTUS41 KLWX 210208 AAB
TAFMTN
TAF AMD
KMTN 210208Z 2102/2124 15012G20KT P6SM VCTS BKN060CB
      TEMPO 2102/2103 18015G30KT 4SM -TSRA BKN020CB
     FM210300 22008KT P6SM -SHRA BKN050
     FM210700 27007KT P6SM BKN045
     FM211100 29011KT P6SM SCT060
     FM211400 27013G20KT P6SM SCT090
      AMD NOT SKED 2102/2112=



000
FTUS41 KLWX 210208 AAB
TAFMTN
TAF AMD
KMTN 210208Z 2102/2124 15012G20KT P6SM VCTS BKN060CB
      TEMPO 2102/2103 18015G30KT 4SM -TSRA BKN020CB
     FM210300 22008KT P6SM -SHRA BKN050
     FM210700 27007KT P6SM BKN045
     FM211100 29011KT P6SM SCT060
     FM211400 27013G20KT P6SM SCT090
      AMD NOT SKED 2102/2112=



000
FTUS41 KLWX 210028 AAB
TAFBWI
TAF AMD
KBWI 210028Z 2100/2206 15007KT P6SM VCTS BKN050CB
      TEMPO 2100/2101 28015G40KT 2SM TSRA BKN030CB
     FM210300 22008KT P6SM -SHRA BKN050
     FM210700 27007KT P6SM BKN045
     FM211100 29011KT P6SM SCT060
     FM211400 27013G22KT P6SM SCT090
     FM220000 26007KT P6SM SCT120=



000
FTUS41 KLWX 210028 AAB
TAFBWI
TAF AMD
KBWI 210028Z 2100/2206 15007KT P6SM VCTS BKN050CB
      TEMPO 2100/2101 28015G40KT 2SM TSRA BKN030CB
     FM210300 22008KT P6SM -SHRA BKN050
     FM210700 27007KT P6SM BKN045
     FM211100 29011KT P6SM SCT060
     FM211400 27013G22KT P6SM SCT090
     FM220000 26007KT P6SM SCT120=



000
FTUS41 KLWX 210021 AAA
TAFMTN
TAF AMD
KMTN 210021Z 2100/2124 15012G20KT P6SM VCTS BKN060CB
      TEMPO 2101/2102 18015G30KT 4SM -TSRA BKN050CB
     FM210300 22008KT P6SM -SHRA BKN050
     FM210700 27007KT P6SM BKN045
     FM211100 29011KT P6SM SCT060
     FM211400 27013G20KT P6SM SCT090
      AMD NOT SKED 2102/2112=



000
FTUS41 KLWX 210021 AAA
TAFMTN
TAF AMD
KMTN 210021Z 2100/2124 15012G20KT P6SM VCTS BKN060CB
      TEMPO 2101/2102 18015G30KT 4SM -TSRA BKN050CB
     FM210300 22008KT P6SM -SHRA BKN050
     FM210700 27007KT P6SM BKN045
     FM211100 29011KT P6SM SCT060
     FM211400 27013G20KT P6SM SCT090
      AMD NOT SKED 2102/2112=



000
FTUS41 KLWX 210017 AAA
TAFBWI
TAF AMD
KBWI 210017Z 2100/2206 15007KT P6SM VCTS BKN050CB
      TEMPO 2100/2101 22015G30KT 4SM TSRA BKN045CB
     FM210300 22008KT P6SM -SHRA BKN050
     FM210700 27007KT P6SM BKN045
     FM211100 29011KT P6SM SCT060
     FM211400 27013G22KT P6SM SCT090
     FM220000 26007KT P6SM SCT120=



000
FTUS41 KLWX 210017 AAA
TAFBWI
TAF AMD
KBWI 210017Z 2100/2206 15007KT P6SM VCTS BKN050CB
      TEMPO 2100/2101 22015G30KT 4SM TSRA BKN045CB
     FM210300 22008KT P6SM -SHRA BKN050
     FM210700 27007KT P6SM BKN045
     FM211100 29011KT P6SM SCT060
     FM211400 27013G22KT P6SM SCT090
     FM220000 26007KT P6SM SCT120=



000
FTUS41 KLWX 210008 AAA
TAFCHO
TAF AMD
KCHO 210008Z 2100/2124 22007KT P6SM VCTS BKN050CB
      TEMPO 2100/2102 3SM -TSRA BKN020CB
     FM210300 22006KT P6SM BKN050
     FM210500 26006KT P6SM SCT050
     FM211500 26008KT P6SM FEW200
     FM211800 24012G19KT P6SM FEW060
     FM212300 23008KT P6SM FEW150=



000
FTUS41 KLWX 210008 AAA
TAFCHO
TAF AMD
KCHO 210008Z 2100/2124 22007KT P6SM VCTS BKN050CB
      TEMPO 2100/2102 3SM -TSRA BKN020CB
     FM210300 22006KT P6SM BKN050
     FM210500 26006KT P6SM SCT050
     FM211500 26008KT P6SM FEW200
     FM211800 24012G19KT P6SM FEW060
     FM212300 23008KT P6SM FEW150=



000
FTUS41 KLWX 210001 AAA
TAFMRB
TAF AMD
KMRB 210001Z 2100/2124 17012KT P6SM VCTS BKN050CB
      TEMPO 2101/2102 20015G30KT 5SM -TSRA BKN050CB
     FM210200 23007KT P6SM BKN050
     FM210600 27009KT P6SM BKN040
     FM211000 28009KT P6SM SCT080
     FM211500 27013G22KT P6SM SCT250=



000
FTUS41 KLWX 202344 AAA
TAFDCA
TAF AMD
KDCA 202344Z 2100/2124 18009KT P6SM VCTS BKN050CB
      TEMPO 2100/2101 26020G45KT 1SM +TSRA BKN030CB
     FM210300 22009KT P6SM -SHRA BKN045
     FM210600 26007KT P6SM BKN040
     FM211100 30010KT P6SM SCT060
     FM211400 28012G20KT P6SM SCT090=



000
FTUS41 KLWX 202344 AAA
TAFDCA
TAF AMD
KDCA 202344Z 2100/2124 18009KT P6SM VCTS BKN050CB
      TEMPO 2100/2101 26020G45KT 1SM +TSRA BKN030CB
     FM210300 22009KT P6SM -SHRA BKN045
     FM210600 26007KT P6SM BKN040
     FM211100 30010KT P6SM SCT060
     FM211400 28012G20KT P6SM SCT090=



000
FTUS41 KLWX 202341
TAFMRB
TAF
KMRB 202341Z 2100/2124 17012G22KT P6SM VCTS BKN045CB
     FM210100 23007KT P6SM BKN050
     FM210600 27009KT P6SM BKN040
     FM211000 28009KT P6SM SCT080
     FM211500 27013G22KT P6SM SCT250=



000
FTUS41 KLWX 202341
TAFCHO
TAF
KCHO 202341Z 2100/2124 22007KT P6SM VCTS BKN050CB
     FM210300 22006KT P6SM BKN050
     FM210500 26006KT P6SM SCT050
     FM211500 26008KT P6SM FEW200
     FM211800 24012G19KT P6SM FEW060
     FM212300 23008KT P6SM FEW150=



000
FTUS41 KLWX 202341
TAFMTN
TAF
KMTN 202341Z 2100/2124 15012G20KT P6SM VCTS BKN030CB
     FM210300 22008KT P6SM -SHRA BKN050
     FM210700 27007KT P6SM BKN045
     FM211100 29011KT P6SM SCT060
     FM211400 27013G20KT P6SM SCT090
      AMD NOT SKED 2102/2112=



000
FTUS41 KLWX 202341
TAFBWI
TAF
KBWI 202341Z 2100/2206 15007KT P6SM VCTS BKN050CB
     FM210300 22008KT P6SM -SHRA BKN050
     FM210700 27007KT P6SM BKN045
     FM211100 29011KT P6SM SCT060
     FM211400 27013G22KT P6SM SCT090
     FM220000 26007KT P6SM SCT120=



000
FTUS41 KLWX 202341
TAFDCA
TAF
KDCA 202341Z 2100/2124 18009KT P6SM VCTS BKN050CB
      TEMPO 2100/2101 20018G32KT 5SM -TSRA BKN050CB
     FM210300 22009KT P6SM -SHRA BKN045
     FM210600 26007KT P6SM BKN040
     FM211100 30010KT P6SM SCT060
     FM211400 28012G20KT P6SM SCT090=



000
FTUS41 KLWX 202341
TAFDCA
TAF
KDCA 202341Z 2100/2124 18009KT P6SM VCTS BKN050CB
      TEMPO 2100/2101 20018G32KT 5SM -TSRA BKN050CB
     FM210300 22009KT P6SM -SHRA BKN045
     FM210600 26007KT P6SM BKN040
     FM211100 30010KT P6SM SCT060
     FM211400 28012G20KT P6SM SCT090=



000
FTUS41 KLWX 202341
TAFMTN
TAF
KMTN 202341Z 2100/2124 15012G20KT P6SM VCTS BKN030CB
     FM210300 22008KT P6SM -SHRA BKN050
     FM210700 27007KT P6SM BKN045
     FM211100 29011KT P6SM SCT060
     FM211400 27013G20KT P6SM SCT090
      AMD NOT SKED 2102/2112=



000
FTUS41 KLWX 202341
TAFIAD
TAF
KIAD 202341Z 2100/2206 19010KT P6SM VCTS BKN050CB
      TEMPO 2100/2101 18015G30KT 5SM TSRA OVC050CB
     FM210200 21010KT P6SM -SHRA BKN050
     FM210400 24009KT P6SM BKN060
     FM210800 29011KT P6SM SCT070
     FM211300 30013G22KT P6SM SCT090
     FM220000 25007KT P6SM SCT100=



000
FTUS41 KLWX 202341
TAFMRB
TAF
KMRB 202341Z 2100/2124 17012G22KT P6SM VCTS BKN045CB
     FM210100 23007KT P6SM BKN050
     FM210600 27009KT P6SM BKN040
     FM211000 28009KT P6SM SCT080
     FM211500 27013G22KT P6SM SCT250=



000
FTUS41 KLWX 202341
TAFBWI
TAF
KBWI 202341Z 2100/2206 15007KT P6SM VCTS BKN050CB
     FM210300 22008KT P6SM -SHRA BKN050
     FM210700 27007KT P6SM BKN045
     FM211100 29011KT P6SM SCT060
     FM211400 27013G22KT P6SM SCT090
     FM220000 26007KT P6SM SCT120=



000
FTUS41 KLWX 202341
TAFCHO
TAF
KCHO 202341Z 2100/2124 22007KT P6SM VCTS BKN050CB
     FM210300 22006KT P6SM BKN050
     FM210500 26006KT P6SM SCT050
     FM211500 26008KT P6SM FEW200
     FM211800 24012G19KT P6SM FEW060
     FM212300 23008KT P6SM FEW150=



000
FTUS41 KLWX 202341
TAFIAD
TAF
KIAD 202341Z 2100/2206 19010KT P6SM VCTS BKN050CB
      TEMPO 2100/2101 18015G30KT 5SM TSRA OVC050CB
     FM210200 21010KT P6SM -SHRA BKN050
     FM210400 24009KT P6SM BKN060
     FM210800 29011KT P6SM SCT070
     FM211300 30013G22KT P6SM SCT090
     FM220000 25007KT P6SM SCT100=



000
FTUS41 KLWX 202246 AAC
TAFDCA
TAF AMD
KDCA 202246Z 2023/2118 18009KT P6SM VCTS BKN050CB
      TEMPO 2023/2101 20018G32KT 5SM -TSRA BKN040CB
     FM210200 22009KT P6SM BKN045
     FM210800 28007KT P6SM BKN040
     FM211100 28009KT P6SM SCT060
     FM211600 28013KT P6SM FEW250=



000
FTUS41 KLWX 202154 AAB
TAFMTN
TAF AMD
KMTN 202154Z 2022/2118 16013G21KT P6SM VCTS BKN035CB
      TEMPO 2022/2023 20020G32KT 5SM -TSRA BKN050CB
     FM210200 21007KT P6SM BKN045
     FM211100 28011KT P6SM BKN050
     FM211200 28011KT P6SM FEW060=



000
FTUS41 KLWX 202153 AAC
TAFIAD
TAF AMD
KIAD 202153Z 2022/2124 19013G22KT P6SM VCTS BKN040CB
      TEMPO 2023/2024 20015G30KT 5SM -TSRA BKN050CB
     FM210100 22010KT P6SM BKN050
     FM210800 28008KT P6SM BKN045
     FM211100 28008KT P6SM SCT070
     FM211600 27012KT P6SM FEW250=



000
FTUS41 KLWX 202151 AAC
TAFBWI
TAF AMD
KBWI 202151Z 2022/2124 18009KT P6SM VCTS BKN040CB
      TEMPO 2022/2023 20020G35KT 5SM -TSRA BKN050CB
     FM210200 22008KT P6SM BKN045
     FM210700 26008KT P6SM BKN040
     FM211200 28011KT P6SM FEW060=



000
FTUS41 KLWX 202049 AAB
TAFBWI
TAF AMD
KBWI 202049Z 2021/2124 14011G20KT P6SM BKN050
     FM202200 18009KT P6SM VCTS BKN040CB
     FM210200 22008KT P6SM BKN045
     FM210700 26008KT P6SM BKN040
     FM211200 28011KT P6SM FEW060=



000
FTUS41 KLWX 202046 AAB
TAFDCA
TAF AMD
KDCA 202046Z 2021/2118 18012G20KT P6SM VCTS BKN045CB
     FM210200 22009KT P6SM BKN045
     FM210800 28007KT P6SM BKN040
     FM211100 28009KT P6SM SCT060
     FM211600 28013KT P6SM FEW250=



000
FTUS41 KLWX 202045 AAB
TAFIAD
TAF AMD
KIAD 202045Z 2021/2124 20010KT P6SM BKN060
     FM202200 19011G20KT P6SM VCTS BKN040CB
     FM210100 22010KT P6SM BKN050
     FM210800 28008KT P6SM BKN045
     FM211100 28008KT P6SM SCT070
     FM211600 27012KT P6SM FEW250=



000
FTUS41 KLWX 202043 AAA
TAFMRB
TAF AMD
KMRB 202043Z 2021/2118 17012G22KT P6SM VCTS BKN045CB
     FM210100 23007KT P6SM BKN050
     FM210600 27009KT P6SM BKN040
     FM211000 28009KT P6SM SCT080
     FM211500 27013KT P6SM SCT250=



000
FTUS41 KLWX 202043 AAA
TAFMRB
TAF AMD
KMRB 202043Z 2021/2118 17012G22KT P6SM VCTS BKN045CB
     FM210100 23007KT P6SM BKN050
     FM210600 27009KT P6SM BKN040
     FM211000 28009KT P6SM SCT080
     FM211500 27013KT P6SM SCT250=



000
FTUS41 KLWX 202035 AAA
TAFMTN
TAF AMD
KMTN 202035Z 2021/2118 16011G20KT P6SM VCTS BKN035CB
     FM210200 21007KT P6SM BKN045
     FM211100 28011KT P6SM BKN050
     FM211200 28011KT P6SM FEW060=



000
FTUS41 KLWX 202035 AAA
TAFMTN
TAF AMD
KMTN 202035Z 2021/2118 16011G20KT P6SM VCTS BKN035CB
     FM210200 21007KT P6SM BKN045
     FM211100 28011KT P6SM BKN050
     FM211200 28011KT P6SM FEW060=



000
FTUS41 KLWX 201955 AAA
TAFBWI
TAF AMD
KBWI 201955Z 2020/2124 21011G20KT P6SM VCTS BKN040CB
     FM210200 22008KT P6SM BKN045
     FM210700 26008KT P6SM BKN040
     FM211200 28011KT P6SM FEW060=



000
FTUS41 KLWX 201953 AAA
TAFDCA
TAF AMD
KDCA 201953Z 2020/2118 18012G20KT P6SM VCTS BKN040CB
     FM210200 22009KT P6SM BKN045
     FM210800 28007KT P6SM BKN040
     FM211100 28009KT P6SM SCT060
     FM211600 28013KT P6SM FEW250=



000
FTUS41 KLWX 201953 AAA
TAFDCA
TAF AMD
KDCA 201953Z 2020/2118 18012G20KT P6SM VCTS BKN040CB
     FM210200 22009KT P6SM BKN045
     FM210800 28007KT P6SM BKN040
     FM211100 28009KT P6SM SCT060
     FM211600 28013KT P6SM FEW250=



000
FTUS41 KLWX 201952 AAA
TAFIAD
TAF AMD
KIAD 201952Z 2020/2124 18010G20KT P6SM VCTS BKN040CB
     FM210200 22010KT P6SM BKN050
     FM210800 28008KT P6SM BKN045
     FM211100 28008KT P6SM SCT070
     FM211600 27012KT P6SM FEW250=



000
FTUS41 KLWX 201952 AAA
TAFIAD
TAF AMD
KIAD 201952Z 2020/2124 18010G20KT P6SM VCTS BKN040CB
     FM210200 22010KT P6SM BKN050
     FM210800 28008KT P6SM BKN045
     FM211100 28008KT P6SM SCT070
     FM211600 27012KT P6SM FEW250=



000
FTUS41 KLWX 201729
TAFCHO
TAF
KCHO 201729Z 2018/2118 19012KT P6SM SCT030 BKN250
     FM202100 20011G20KT P6SM -TSRA BKN035CB
     FM210200 22006KT P6SM BKN050
     FM210500 26006KT P6SM SCT050
     FM211100 25004KT P6SM SCT200
     FM211500 26008KT P6SM FEW200=



000
FTUS41 KLWX 201729
TAFMTN
TAF
KMTN 201729Z 2018/2118 19009KT P6SM SCT030 BKN250
     FM202100 18011G20KT P6SM VCTS BKN035CB
     FM210200 21007KT P6SM BKN045
     FM211100 28011KT P6SM BKN050
     FM211200 28011KT P6SM FEW060=



000
FTUS41 KLWX 201729
TAFIAD
TAF
KIAD 201729Z 2018/2124 19011KT P6SM FEW030 SCT250
     FM202100 20011G20KT P6SM VCTS BKN035CB
     FM210200 22010KT P6SM BKN050
     FM210800 28008KT P6SM BKN045
     FM211100 28008KT P6SM SCT070
     FM211600 27012KT P6SM FEW250=



000
FTUS41 KLWX 201729
TAFDCA
TAF
KDCA 201729Z 2018/2118 20010KT P6SM FEW030 SCT250
     FM202100 20012G20KT P6SM VCTS BKN035CB
     FM210200 22009KT P6SM BKN045
     FM210800 28007KT P6SM BKN040
     FM211100 28009KT P6SM SCT060
     FM211600 28013KT P6SM FEW250=



000
FTUS41 KLWX 201729
TAFMRB
TAF
KMRB 201729Z 2018/2118 18012KT P6SM SCT030 BKN250
     FM202000 19011G20KT 6SM -TSRA SCT030CB BKN250
     FM202300 23007KT P6SM -TSRA BKN035CB
     FM210200 25005KT P6SM BKN050
     FM210600 27009KT P6SM BKN040
     FM211000 28009KT P6SM SCT080
     FM211500 27013KT P6SM SCT250=



000
FTUS41 KLWX 201729
TAFBWI
TAF
KBWI 201729Z 2018/2124 19009KT P6SM SCT030 BKN250
     FM202100 19011G20KT P6SM VCTS BKN035CB
     FM210200 22008KT P6SM BKN045
     FM210700 26008KT P6SM BKN040
     FM211200 28011KT P6SM FEW060=



000
FTUS41 KLWX 201452 AAA
TAFBWI
TAF AMD
KBWI 201452Z 2015/2118 20006KT P6SM BKN020
     FM201700 19008KT P6SM BKN030
     FM201800 19009KT P6SM SCT100
     FM202000 19010G19KT P6SM VCTS BKN045CB
     FM210000 20008KT P6SM -TSRA BKN045CB
     FM210200 22008KT P6SM BKN045
     FM210700 26008KT P6SM SCT045
     FM211300 28011KT P6SM FEW250=



000
FTUS41 KLWX 201452 AAA
TAFDCA
TAF AMD
KDCA 201452Z 2015/2112 21008KT P6SM BKN025
     FM201700 20010KT P6SM SCT060
     FM202000 20011G20KT P6SM VCTS BKN045CB
     FM210000 21009KT P6SM -TSRA BKN045CB
     FM210200 22009KT P6SM BKN045
     FM210700 26007KT P6SM SCT050=



000
FTUS41 KLWX 201452 AAA
TAFIAD
TAF AMD
KIAD 201452Z 2015/2118 20008KT P6SM BKN250
     FM201800 19011G20KT P6SM VCTS SCT045CB
     FM202200 20010G21KT P6SM -TSRA BKN045CB
     FM210200 22010KT P6SM BKN045
     FM210700 26007KT P6SM SCT060
     FM211500 28011KT P6SM FEW250=



000
FTUS41 KLWX 201452 AAA
TAFIAD
TAF AMD
KIAD 201452Z 2015/2118 20008KT P6SM BKN250
     FM201800 19011G20KT P6SM VCTS SCT045CB
     FM202200 20010G21KT P6SM -TSRA BKN045CB
     FM210200 22010KT P6SM BKN045
     FM210700 26007KT P6SM SCT060
     FM211500 28011KT P6SM FEW250=



000
FTUS41 KLWX 201452 AAA
TAFBWI
TAF AMD
KBWI 201452Z 2015/2118 20006KT P6SM BKN020
     FM201700 19008KT P6SM BKN030
     FM201800 19009KT P6SM SCT100
     FM202000 19010G19KT P6SM VCTS BKN045CB
     FM210000 20008KT P6SM -TSRA BKN045CB
     FM210200 22008KT P6SM BKN045
     FM210700 26008KT P6SM SCT045
     FM211300 28011KT P6SM FEW250=



000
FTUS41 KLWX 201452 AAA
TAFDCA
TAF AMD
KDCA 201452Z 2015/2112 21008KT P6SM BKN025
     FM201700 20010KT P6SM SCT060
     FM202000 20011G20KT P6SM VCTS BKN045CB
     FM210000 21009KT P6SM -TSRA BKN045CB
     FM210200 22009KT P6SM BKN045
     FM210700 26007KT P6SM SCT050=



000
FTUS41 KLWX 201136
TAFBWI
TAF
KBWI 201136Z 2012/2118 15005KT 3SM BR OVC008 WS020/19030KT
     FM201300 18006KT P6SM OVC015
     FM201700 19008KT P6SM BKN050
     FM202000 19010G19KT P6SM VCTS BKN045CB
     FM210000 20008KT P6SM -SHRA BKN045
     FM210100 20008KT P6SM BKN045
     FM210700 26008KT P6SM SCT045
     FM211300 28011KT P6SM FEW250=



000
FTUS41 KLWX 201136
TAFMTN
TAF
KMTN 201136Z 2012/2112 17007KT P6SM OVC008
     FM201400 18007KT P6SM BKN015
     FM201700 18008KT P6SM BKN050
     FM202000 18010G19KT P6SM VCTS BKN045CB
     FM210000 20007KT P6SM -SHRA BKN045
     FM210400 22007KT P6SM BKN045
     FM210600 24008KT P6SM SCT060
     FM211100 28011KT P6SM FEW060=



000
FTUS41 KLWX 201136
TAFMRB
TAF
KMRB 201136Z 2012/2112 17004KT P6SM OVC003
     FM201300 18006KT P6SM OVC015
     FM201600 17010KT P6SM BKN060
     FM201800 18012KT P6SM VCTS BKN060CB
     FM202000 19011G20KT P6SM -TSRA BKN045CB
     FM202300 23007KT P6SM -SHRA OVC045
     FM210100 25005KT P6SM OVC045
     FM210600 27009KT P6SM BKN090
     FM210700 27010KT P6SM SCT080=



000
FTUS41 KLWX 201136
TAFCHO
TAF
KCHO 201136Z 2012/2112 19011KT P6SM BKN050
      TEMPO 2012/2013 2SM BR
     FM201800 19012KT P6SM VCTS BKN060CB
     FM202000 20012G21KT P6SM -TSRA BKN045CB
     FM210000 22008KT P6SM -SHRA BKN045
     FM210100 22007KT P6SM BKN045
     FM210500 26006KT P6SM SCT045
     FM211100 25004KT P6SM FEW250=



000
FTUS41 KLWX 201136
TAFIAD
TAF
KIAD 201136Z 2012/2118 20008KT P6SM SCT015 BKN030
     FM201700 19010KT P6SM BKN050
     FM201900 19011G20KT P6SM VCTS BKN045CB
     FM210000 21010KT P6SM -SHRA BKN045
     FM210100 22009KT P6SM BKN045
     FM210700 26007KT P6SM SCT060
     FM211500 28011KT P6SM FEW250=



000
FTUS41 KLWX 201136
TAFDCA
TAF
KDCA 201136Z 2012/2112 19007KT P6SM SCT008 OVC015
     FM201700 20010KT P6SM BKN060
     FM202000 20011G20KT P6SM VCTS BKN045CB
     FM210000 21009KT P6SM -SHRA BKN045
     FM210100 21009KT P6SM BKN045
     FM210700 26007KT P6SM SCT050=



000
FTUS41 KLWX 201136
TAFBWI
TAF
KBWI 201136Z 2012/2118 15005KT 3SM BR OVC008 WS020/19030KT
     FM201300 18006KT P6SM OVC015
     FM201700 19008KT P6SM BKN050
     FM202000 19010G19KT P6SM VCTS BKN045CB
     FM210000 20008KT P6SM -SHRA BKN045
     FM210100 20008KT P6SM BKN045
     FM210700 26008KT P6SM SCT045
     FM211300 28011KT P6SM FEW250=



000
FTUS41 KLWX 201136
TAFMRB
TAF
KMRB 201136Z 2012/2112 17004KT P6SM OVC003
     FM201300 18006KT P6SM OVC015
     FM201600 17010KT P6SM BKN060
     FM201800 18012KT P6SM VCTS BKN060CB
     FM202000 19011G20KT P6SM -TSRA BKN045CB
     FM202300 23007KT P6SM -SHRA OVC045
     FM210100 25005KT P6SM OVC045
     FM210600 27009KT P6SM BKN090
     FM210700 27010KT P6SM SCT080=



000
FTUS41 KLWX 201136
TAFMTN
TAF
KMTN 201136Z 2012/2112 17007KT P6SM OVC008
     FM201400 18007KT P6SM BKN015
     FM201700 18008KT P6SM BKN050
     FM202000 18010G19KT P6SM VCTS BKN045CB
     FM210000 20007KT P6SM -SHRA BKN045
     FM210400 22007KT P6SM BKN045
     FM210600 24008KT P6SM SCT060
     FM211100 28011KT P6SM FEW060=



000
FTUS41 KLWX 201136
TAFCHO
TAF
KCHO 201136Z 2012/2112 19011KT P6SM BKN050
      TEMPO 2012/2013 2SM BR
     FM201800 19012KT P6SM VCTS BKN060CB
     FM202000 20012G21KT P6SM -TSRA BKN045CB
     FM210000 22008KT P6SM -SHRA BKN045
     FM210100 22007KT P6SM BKN045
     FM210500 26006KT P6SM SCT045
     FM211100 25004KT P6SM FEW250=



000
FTUS41 KLWX 201136
TAFDCA
TAF
KDCA 201136Z 2012/2112 19007KT P6SM SCT008 OVC015
     FM201700 20010KT P6SM BKN060
     FM202000 20011G20KT P6SM VCTS BKN045CB
     FM210000 21009KT P6SM -SHRA BKN045
     FM210100 21009KT P6SM BKN045
     FM210700 26007KT P6SM SCT050=



000
FTUS41 KLWX 201136
TAFIAD
TAF
KIAD 201136Z 2012/2118 20008KT P6SM SCT015 BKN030
     FM201700 19010KT P6SM BKN050
     FM201900 19011G20KT P6SM VCTS BKN045CB
     FM210000 21010KT P6SM -SHRA BKN045
     FM210100 22009KT P6SM BKN045
     FM210700 26007KT P6SM SCT060
     FM211500 28011KT P6SM FEW250=



000
FTUS41 KLWX 201053 AAC
TAFCHO
TAF AMD
KCHO 201053Z 2011/2106 VRB03KT P6SM BKN015
     FM201400 20008KT P6SM BKN250
     FM201800 19012KT P6SM BKN045
     FM202200 20010KT P6SM -SHRA BKN050
     FM210100 22007KT P6SM BKN050
     FM210500 26007KT P6SM SCT090=



000
FTUS41 KLWX 201053 AAC
TAFCHO
TAF AMD
KCHO 201053Z 2011/2106 VRB03KT P6SM BKN015
     FM201400 20008KT P6SM BKN250
     FM201800 19012KT P6SM BKN045
     FM202200 20010KT P6SM -SHRA BKN050
     FM210100 22007KT P6SM BKN050
     FM210500 26007KT P6SM SCT090=



000
FTUS41 KLWX 201053 AAB
TAFMRB
TAF AMD
KMRB 201053Z 2011/2106 26004KT P6SM OVC005
     FM201300 22005KT P6SM BKN025
     FM201600 20008KT P6SM BKN250
     FM201800 18012KT P6SM -SHRA BKN050
     FM202300 22008KT P6SM -SHRA OVC050
     FM210100 24007KT P6SM OVC050=



000
FTUS41 KLWX 201053 AAB
TAFMRB
TAF AMD
KMRB 201053Z 2011/2106 26004KT P6SM OVC005
     FM201300 22005KT P6SM BKN025
     FM201600 20008KT P6SM BKN250
     FM201800 18012KT P6SM -SHRA BKN050
     FM202300 22008KT P6SM -SHRA OVC050
     FM210100 24007KT P6SM OVC050=



000
FTUS41 KLWX 201005 AAB
TAFCHO
TAF AMD
KCHO 201005Z 2010/2106 VRB03KT 1SM BR BKN015
     FM201400 20008KT P6SM BKN250
     FM201800 19012KT P6SM BKN045
     FM202200 20010KT P6SM -SHRA BKN050
     FM210100 22007KT P6SM BKN050
     FM210500 26007KT P6SM SCT090=



000
FTUS41 KLWX 200900 AAB
TAFBWI
TAF AMD
KBWI 200900Z 2009/2112 11012G20KT 3SM RA BR OVC008
     FM201000 25010G18KT 5SM -RA BR OVC008
     FM201300 20010KT P6SM OVC015
     FM201700 20008KT P6SM BKN250
     FM202200 19010KT P6SM -SHRA BKN050
     FM210100 20009KT P6SM BKN060
     FM210500 24008KT P6SM BKN070
     FM210700 26008KT P6SM SCT060=



000
FTUS41 KLWX 200900 AAC
TAFIAD
TAF AMD
KIAD 200900Z 2009/2112 21007KT 4SM -RA BR SCT006 OVC012
     FM201000 21007KT P6SM OVC015
     FM201600 20009KT P6SM BKN250
     FM202200 20011KT P6SM -SHRA BKN050
     FM210100 22009KT P6SM BKN150
     FM210800 28008KT P6SM SCT080=



000
FTUS41 KLWX 200900 AAC
TAFDCA
TAF AMD
KDCA 200900Z 2009/2106 25012KT 4SM -RA BR OVC009
     FM201030 21007KT P6SM OVC015
     FM201600 21009KT P6SM BKN250
     FM202200 20011KT P6SM -SHRA BKN045
     FM210100 21008KT P6SM BKN050=



000
FTUS41 KLWX 200815 AAA
TAFBWI
TAF AMD
KBWI 200815Z 2008/2112 12011G20KT 2SM RA BR OVC006
     FM201000 29012G20KT 5SM -RA BR OVC012
     FM201300 20010KT P6SM OVC015
     FM201700 20008KT P6SM BKN250
     FM202200 19010KT P6SM -SHRA BKN050
     FM210100 20009KT P6SM BKN060
     FM210500 24008KT P6SM BKN070
     FM210700 26008KT P6SM SCT060=



000
FTUS41 KLWX 200812 AAB
TAFIAD
TAF AMD
KIAD 200812Z 2008/2112 29012G20KT 5SM -RA BR SCT008 OVC015
     FM201100 21007KT P6SM OVC025
     FM201600 20009KT P6SM BKN250
     FM202200 20011KT P6SM -SHRA BKN050
     FM210100 22009KT P6SM BKN150
     FM210800 28008KT P6SM SCT080=



000
FTUS41 KLWX 200812 AAB
TAFDCA
TAF AMD
KDCA 200812Z 2008/2106 11015G26KT 5SM -RA BR OVC025
     FM200900 29012G20KT P6SM -RA OVC025
     FM201100 16012KT P6SM OVC025
     FM201300 21007KT P6SM OVC025
     FM201600 21009KT P6SM BKN250
     FM202200 20011KT P6SM -SHRA BKN045
     FM210100 21008KT P6SM BKN050=



000
FTUS41 KLWX 200812 AAB
TAFIAD
TAF AMD
KIAD 200812Z 2008/2112 29012G20KT 5SM -RA BR SCT008 OVC015
     FM201100 21007KT P6SM OVC025
     FM201600 20009KT P6SM BKN250
     FM202200 20011KT P6SM -SHRA BKN050
     FM210100 22009KT P6SM BKN150
     FM210800 28008KT P6SM SCT080=



000
FTUS41 KLWX 200812 AAB
TAFDCA
TAF AMD
KDCA 200812Z 2008/2106 11015G26KT 5SM -RA BR OVC025
     FM200900 29012G20KT P6SM -RA OVC025
     FM201100 16012KT P6SM OVC025
     FM201300 21007KT P6SM OVC025
     FM201600 21009KT P6SM BKN250
     FM202200 20011KT P6SM -SHRA BKN045
     FM210100 21008KT P6SM BKN050=



000
FTUS41 KLWX 200808 AAA
TAFMRB
TAF AMD
KMRB 200808Z 2008/2106 30011KT 5SM -RA BR SCT005 OVC015
     FM201100 22004KT P6SM OVC015
     FM201600 20008KT P6SM BKN250
     FM201800 18012KT P6SM -SHRA BKN050
     FM202300 22008KT P6SM -SHRA OVC050
     FM210100 24007KT P6SM OVC050=



000
FTUS41 KLWX 200805 AAA
TAFDCA
TAF AMD
KDCA 200805Z 2008/2106 11015G26KT 5SM -RA BR OVC025
     FM201000 16012KT P6SM OVC025
     FM201300 21007KT P6SM OVC025
     FM201600 21009KT P6SM BKN250
     FM202200 20011KT P6SM -SHRA BKN045
     FM210100 21008KT P6SM BKN050=



000
FTUS41 KLWX 200805 AAA
TAFIAD
TAF AMD
KIAD 200805Z 2008/2112 12012G20KT 5SM -RA BR SCT008 OVC015
     FM201000 21007KT P6SM OVC025
     FM201600 20009KT P6SM BKN250
     FM202200 20011KT P6SM -SHRA BKN050
     FM210100 22009KT P6SM BKN150
     FM210800 28008KT P6SM SCT080=



000
FTUS41 KLWX 200805 AAA
TAFIAD
TAF AMD
KIAD 200805Z 2008/2112 12012G20KT 5SM -RA BR SCT008 OVC015
     FM201000 21007KT P6SM OVC025
     FM201600 20009KT P6SM BKN250
     FM202200 20011KT P6SM -SHRA BKN050
     FM210100 22009KT P6SM BKN150
     FM210800 28008KT P6SM SCT080=



000
FTUS41 KLWX 200805 AAA
TAFDCA
TAF AMD
KDCA 200805Z 2008/2106 11015G26KT 5SM -RA BR OVC025
     FM201000 16012KT P6SM OVC025
     FM201300 21007KT P6SM OVC025
     FM201600 21009KT P6SM BKN250
     FM202200 20011KT P6SM -SHRA BKN045
     FM210100 21008KT P6SM BKN050=



000
FTUS41 KLWX 200704 AAA
TAFCHO
TAF AMD
KCHO 200704Z 2007/2106 17006KT 5SM -RA BR SCT007 OVC015
     FM200900 21005KT P6SM OVC025
     FM201500 20008KT P6SM BKN250
     FM201800 19012KT P6SM BKN045
     FM202200 20010KT P6SM -SHRA BKN050
     FM210100 22007KT P6SM BKN050
     FM210500 26007KT P6SM SCT090=



000
FTUS41 KLWX 200540
TAFIAD
TAF
KIAD 200540Z 2006/2112 11015G24KT 2SM RA BR OVC008
     FM200800 16012G20KT 3SM RA BR OVC005
     FM201000 21007KT 5SM -RA BR OVC005
     FM201300 20007KT P6SM OVC015
     FM201600 20009KT P6SM BKN250
     FM202200 20011KT P6SM -SHRA BKN050
     FM210100 22009KT P6SM BKN150
     FM210800 28008KT P6SM SCT080=



000
FTUS41 KLWX 200540
TAFCHO
TAF
KCHO 200540Z 2006/2106 07007KT 2SM +RA BR OVC006
     FM200700 17006KT 2SM RA BR OVC004
     FM200900 21005KT P6SM OVC011
     FM201500 20008KT P6SM BKN250
     FM201800 19012KT P6SM BKN045
     FM202200 20010KT P6SM -SHRA BKN050
     FM210100 22007KT P6SM BKN050
     FM210500 26007KT P6SM SCT090=



000
FTUS41 KLWX 200540
TAFBWI
TAF
KBWI 200540Z 2006/2112 10016G29KT 5SM -RA OVC012
     FM200700 12014G27KT 2SM RA BR OVC008
     FM201000 16012G20KT 3SM RA BR OVC008
     FM201100 17010KT 3SM -RA BR OVC008
     FM201300 20010KT P6SM OVC015
     FM201700 20008KT P6SM BKN250
     FM202200 19010KT P6SM -SHRA BKN050
     FM210100 20009KT P6SM BKN060
     FM210500 24008KT P6SM BKN070
     FM210700 26008KT P6SM SCT060=



000
FTUS41 KLWX 200540
TAFMRB
TAF
KMRB 200540Z 2006/2106 11011KT 2SM +RA BR OVC005
     FM200900 14005KT 3SM RA BR OVC008
     FM201100 22004KT 5SM -RA BR OVC008
     FM201300 23005KT P6SM OVC015
     FM201600 20008KT P6SM BKN250
     FM201800 18012KT P6SM -SHRA BKN050
     FM202300 22008KT P6SM -SHRA OVC050
     FM210100 24007KT P6SM OVC050=



000
FTUS41 KLWX 200540
TAFMTN
TAF
KMTN 200540Z 2006/2106 NIL=



000
FTUS41 KLWX 200540
TAFDCA
TAF
KDCA 200540Z 2006/2106 11015G26KT 3SM RA BR OVC008
     FM200900 16012KT 5SM -RA BR OVC008
     FM201100 19009KT 5SM -RA BR OVC008
     FM201300 21007KT P6SM OVC015
     FM201600 21009KT P6SM BKN250
     FM202200 20011KT P6SM -SHRA BKN045
     FM210100 21008KT P6SM BKN050=



000
FTUS41 KLWX 200447 AAB
TAFDCA
TAF AMD
KDCA 200447Z 2005/2024 08009G18KT 2SM RA BR OVC006 WS020/11040KT
     FM200800 14016KT 3SM RA OVC008
     FM201000 16012KT 3SM -RA OVC008
     FM201200 18008KT P6SM OVC008
     FM201400 21009KT P6SM BKN015
     FM201600 21010KT P6SM BKN040
     FM202200 21012KT 6SM -SHRA BKN070=



000
FTUS41 KLWX 200447 AAB
TAFBWI
TAF AMD
KBWI 200447Z 2005/2106 09010G20KT 3SM -RA BR OVC010
     FM200700 13019G27KT 2SM RA BR OVC005
     FM201000 14014KT 3SM -RA OVC008
     FM201200 16010KT P6SM OVC008
     FM201400 20009KT P6SM OVC008
     FM201800 20011KT P6SM BKN020
     FM202200 20011KT 6SM -SHRA BKN030
     FM210300 24008KT P6SM BKN090
     FM210500 25008KT P6SM SCT090=



000
FTUS41 KLWX 200447 AAC
TAFIAD
TAF AMD
KIAD 200447Z 2005/2106 10015G22KT 2SM RA BR OVC005 WS020/11040KT
     FM200700 14014KT 3SM RA OVC008
     FM201000 16010KT 3SM -RA OVC008
     FM201200 20007KT P6SM OVC008
     FM201600 21010KT P6SM BKN050
     FM202100 20010KT 5SM -SHRA BKN070
     FM202200 21010KT 5SM -SHRA BKN030
     FM210100 22010KT P6SM OVC090
     FM210500 26009KT P6SM SCT090=



000
FTUS41 KLWX 200359 AAB
TAFIAD
TAF AMD
KIAD 200359Z 2004/2106 10015G22KT 5SM -RA BR OVC008 WS020/11040KT
     FM200600 14014KT 3SM RA OVC008
     FM201000 16010KT 3SM -RA OVC008
     FM201200 20007KT P6SM OVC008
     FM201600 21010KT P6SM BKN050
     FM202100 20010KT 5SM -SHRA BKN070
     FM202200 21010KT 5SM -SHRA BKN030
     FM210100 22010KT P6SM OVC090
     FM210500 26009KT P6SM SCT090=



000
FTUS41 KLWX 200351 AAA
TAFCHO
TAF AMD
KCHO 200351Z 2004/2024 03015KT 2SM +RA OVC005 WS020/13035KT
     FM200700 14013KT 2SM RA OVC008
     FM200900 19007KT 3SM -RA BR OVC008
     FM201000 19006KT P6SM OVC008
     FM201500 20009KT P6SM BKN020
     FM202200 20011KT 5SM -SHRA SCT030 BKN070=



000
FTUS41 KLWX 200349 AAB
TAFMRB
TAF AMD
KMRB 200349Z 2004/2024 01006KT 3SM -RA BR OVC005 WS020/11040KT
     FM200700 09010KT 3SM RA OVC008 WS020/13040KT
     FM200800 13010KT 3SM RA OVC008
     FM201000 17008KT 3SM -RA OVC008
     FM201200 23005KT P6SM OVC008
     FM201600 20008KT P6SM BKN050
     FM201800 19009KT 6SM -SHRA BKN060=



000
FTUS41 KLWX 200241 AAA
TAFIAD
TAF AMD
KIAD 200241Z 2003/2106 10015G22KT 6SM -RA BR FEW008 BKN012 OVC017
      WS020/11040KT
     FM200500 14014KT 3SM RA OVC008
     FM201000 16010KT 3SM -RA OVC008
     FM201200 20007KT P6SM OVC008
     FM201600 21010KT P6SM BKN050
     FM202100 20010KT 5SM -SHRA BKN070
     FM202200 21010KT 5SM -SHRA BKN030
     FM210100 22010KT P6SM OVC090
     FM210500 26009KT P6SM SCT090=



000
FTUS41 KLWX 200241 AAA
TAFDCA
TAF AMD
KDCA 200241Z 2003/2024 08009G18KT 4SM RA OVC018 WS020/11040KT
     FM200800 14016KT 3SM RA OVC008
     FM201000 16012KT 3SM -RA OVC008
     FM201200 18008KT P6SM OVC008
     FM201400 21009KT P6SM BKN015
     FM201600 21010KT P6SM BKN040
     FM202200 21012KT 6SM -SHRA BKN070=



000
FTUS41 KLWX 200241 AAA
TAFBWI
TAF AMD
KBWI 200241Z 2003/2106 09010G20KT P6SM -RA OVC021 WS020/11040KT
     FM200600 14014KT 3SM RA OVC008
     FM200800 13019G27KT 2SM RA OVC008
     FM201000 14014KT 3SM -RA OVC008
     FM201200 16010KT P6SM OVC008
     FM201400 20009KT P6SM OVC008
     FM201800 20011KT P6SM BKN020
     FM202200 20011KT 6SM -SHRA BKN030
     FM210300 24008KT P6SM BKN090
     FM210500 25008KT P6SM SCT090=



000
FTUS41 KLWX 200241 AAA
TAFMRB
TAF AMD
KMRB 200241Z 2003/2024 11013KT 5SM -RA BR OVC019 WS020/11040KT
     FM200400 06014KT 3SM RA OVC013 WS020/12040KT
     FM200700 09014KT 3SM RA OVC008 WS020/13040KT
     FM200800 13012KT 3SM RA OVC008
     FM201000 17008KT 3SM -RA OVC008
     FM201200 23005KT P6SM OVC008
     FM201600 20008KT P6SM BKN050
     FM201800 19009KT 6SM -SHRA BKN060=



000
FTUS41 KLWX 192329
TAFCHO
TAF
KCHO 192329Z 2000/2024 05005KT 2SM -RA BR BKN009 OVC014
     FM200100 05013KT 2SM +RA OVC015
     FM200400 06015KT 2SM RA OVC008 WS020/13035KT
     FM200500 10016KT 2SM RA OVC008
     FM200700 14013KT 2SM -RA OVC008
     FM200900 19007KT 3SM -RA OVC008
     FM201000 19006KT P6SM OVC008
     FM201500 20009KT P6SM BKN020
     FM202200 20011KT 5SM -SHRA SCT030 BKN070=



000
FTUS41 KLWX 192329
TAFMRB
TAF
KMRB 192329Z 2000/2024 11006G17KT P6SM -RA BKN030 OVC100
     FM200300 06013KT 3SM RA OVC008 WS020/11040KT
     FM200400 06014KT 3SM +RA OVC008 WS020/12040KT
     FM200700 09014KT 3SM RA OVC008 WS020/13040KT
     FM200800 13012KT 3SM RA OVC008
     FM201000 17008KT 3SM -RA OVC008
     FM201200 23005KT P6SM OVC008
     FM201600 20008KT P6SM BKN050
     FM201800 19009KT 6SM -SHRA BKN060=



000
FTUS41 KLWX 192329
TAFMTN
TAF
KMTN 192329Z 2000/2024 08011G20KT P6SM OVC035
     FM200100 10016KT P6SM -RA OVC025
     FM200300 09018KT 6SM +RA OVC008 WS020/11040KT
     FM200800 12021KT 2SM +RA OVC008
     FM201100 15014KT 2SM RA OVC008
     FM201400 18011KT P6SM OVC008
     FM201800 19011KT P6SM BKN070
     FM202200 20012KT 6SM -SHRA SCT030 BKN070
      AMD NOT SKED 2002/2012=



000
FTUS41 KLWX 192329
TAFIAD
TAF
KIAD 192329Z 2000/2106 09013G20KT P6SM -RA BKN027 OVC090
     FM200300 11016G24KT 3SM +RA OVC008 WS020/11040KT
     FM200800 14014KT 2SM +RA OVC008
     FM201000 16010KT 3SM -RA OVC008
     FM201200 20007KT P6SM OVC008
     FM201600 21010KT P6SM BKN050
     FM202100 20010KT 5SM -SHRA BKN070
     FM202200 21010KT 5SM -SHRA BKN030
     FM210100 22010KT P6SM OVC090
     FM210500 26009KT P6SM SCT090=



000
FTUS41 KLWX 192329
TAFDCA
TAF
KDCA 192329Z 2000/2024 08012G20KT P6SM -RA OVC028
     FM200300 09017G24KT 3SM +RA OVC008 WS020/11040KT
     FM200800 14016KT 2SM +RA OVC008
     FM201000 16012KT 3SM -RA OVC008
     FM201200 18008KT P6SM OVC008
     FM201400 21009KT P6SM BKN015
     FM201600 21010KT P6SM BKN040
     FM202200 21012KT 6SM -SHRA BKN070=



000
FTUS41 KLWX 192329
TAFBWI
TAF
KBWI 192329Z 2000/2106 08012KT P6SM OVC029
     FM200100 09014KT P6SM +RA OVC025
     FM200300 09016KT 3SM +RA OVC008 WS020/11040KT
     FM200800 13019G27KT 2SM +RA OVC008
     FM201000 14014KT 3SM -RA OVC008
     FM201200 16010KT P6SM OVC008
     FM201400 20009KT P6SM OVC008
     FM201800 20011KT P6SM BKN020
     FM202200 20011KT 6SM -SHRA BKN030
     FM210300 24008KT P6SM BKN090
     FM210500 25008KT P6SM SCT090=



000
FTUS41 KLWX 192041 AAA
TAFDCA
TAF AMD
KDCA 192041Z 1921/2018 11015KT P6SM SCT040 BKN140 OVC250
     FM192200 10012KT P6SM -RA OVC050
     FM200000 09012KT P6SM +RA OVC020
     FM200200 09015KT 3SM +RA OVC010
     FM200800 14016KT 2SM RA OVC008
     FM201000 16012KT 3SM -RA OVC008
     FM201200 18008KT P6SM OVC008
     FM201600 21010KT P6SM BKN040=



000
FTUS41 KLWX 192041 AAA
TAFIAD
TAF AMD
KIAD 192041Z 1921/2024 10012G19KT P6SM BKN040 OVC100
     FM192300 09011KT P6SM RA OVC020
     FM200100 08013KT 3SM +RA OVC010
     FM200800 14014KT 2SM RA OVC008
     FM201200 20007KT P6SM OVC008
     FM201600 21010KT P6SM BKN050
     FM202200 21010KT 5SM -SHRA BKN070=



000
FTUS41 KLWX 192041 AAA
TAFBWI
TAF AMD
KBWI 192041Z 1921/2024 11013G20KT P6SM FEW040 BKN190 OVC250
     FM200000 09013KT P6SM RA OVC040
     FM200100 09014KT P6SM +RA OVC025
     FM200300 09016KT 3SM +RA OVC015
     FM200800 13016G26KT 2SM RA OVC008
     FM201000 14014KT 3SM RA OVC008
     FM201200 16010KT P6SM OVC008
     FM201800 20011KT P6SM BKN110
     FM202200 20011KT 6SM -SHRA BKN070=



000
FTUS41 KLWX 191821 AAA
TAFCHO
TAF AMD
KCHO 191821Z 1918/2018 07012KT P6SM -RA OVC060
     FM192000 06012KT 3SM RA OVC015
     FM200000 05013KT 2SM +RA OVC008
     FM200400 06015KT 2SM RA OVC008 WS020/13035KT
     FM200700 14013KT 2SM -RA OVC008
     FM201000 19006KT P6SM OVC008
     FM201500 20009KT P6SM BKN090=



000
FTUS41 KLWX 191737
TAFDCA
TAF
KDCA 191737Z 1918/2018 10014G20KT P6SM BKN250
     FM192200 10012G20KT P6SM -RA OVC050
     FM200000 09012G22KT P6SM +RA OVC020
     FM200200 09015G24KT 5SM +RA OVC010
     FM200800 14016G25KT 2SM +RA OVC008
     FM201000 16012G18KT 3SM -RA OVC008
     FM201200 18008KT P6SM OVC008
     FM201600 21010KT P6SM BKN040=



000
FTUS41 KLWX 191737
TAFCHO
TAF
KCHO 191737Z 1918/2018 07012KT P6SM -RA OVC060
     FM192000 06012KT P6SM RA OVC020
     FM192100 06012KT 2SM +RA OVC010
     FM200000 06012KT 3SM +RA OVC010
     FM200100 05013G23KT 2SM +RA OVC008
     FM200400 06015G24KT 2SM RA OVC008 WS020/13035KT
     FM200800 19007KT 3SM -RA OVC008
     FM201000 19006KT P6SM OVC008
     FM201500 20009KT P6SM BKN090=



000
FTUS41 KLWX 191737
TAFMRB
TAF
KMRB 191737Z 1918/2018 13012KT P6SM BKN250
     FM192100 12013KT P6SM -RA OVC060
     FM200100 09011KT P6SM RA OVC010
     FM200400 06014KT 3SM +RA OVC008 WS020/12040KT
     FM200700 09014KT 3SM RA OVC008 WS020/13040KT
     FM201000 17008KT 3SM -RA OVC008
     FM201200 23005KT P6SM OVC012
     FM201600 20008KT P6SM BKN050=



000
FTUS41 KLWX 191737
TAFBWI
TAF
KBWI 191737Z 1918/2024 11014G21KT P6SM SCT250
     FM192100 10013G20KT P6SM BKN100
     FM200000 09014G24KT 5SM -RA OVC025
     FM200300 09016G25KT 3SM +RA OVC015
     FM200800 13019G27KT 2SM +RA OVC008
     FM201000 14014G19KT 3SM RA OVC008
     FM201200 16010KT P6SM OVC008
     FM201400 20009KT P6SM OVC012
     FM201800 20011KT P6SM BKN110
     FM202200 20011KT 6SM -SHRA BKN070=



000
FTUS41 KLWX 191737
TAFMTN
TAF
KMTN 191737Z 1918/2018 11015KT P6SM SCT250
     FM192100 10014G23KT P6SM BKN110
     FM200100 10016G25KT P6SM -RA OVC040
     FM200200 09017G25KT P6SM RA OVC020
     FM200800 12021KT 2SM +RA OVC008
     FM200900 13019KT 3SM +RA OVC008
     FM201100 15014KT 2SM +RA OVC008
     FM201400 18011KT P6SM OVC008
     FM201700 19011G18KT P6SM BKN025=



000
FTUS41 KLWX 191737
TAFIAD
TAF
KIAD 191737Z 1918/2024 10013G20KT P6SM OVC200
     FM192200 11013G20KT 5SM -RA OVC050
     FM200100 08013G24KT 3SM +RA OVC015
     FM200800 14014G26KT 2SM +RA OVC008
     FM201000 16010G18KT 3SM -RA OVC008
     FM201200 20007KT P6SM OVC008
     FM201600 21010KT P6SM BKN050
     FM202100 21012G18KT 5SM -SHRA BKN070=



000
FTUS41 KLWX 191527 AAB
TAFBWI
TAF AMD
KBWI 191527Z 1915/2018 09014G22KT P6SM OVC200
     FM192200 10012G18KT P6SM -RA BKN090
     FM200300 09016G25KT P6SM -RA OVC010
     FM200500 09018G26KT 3SM +RA OVC008
     FM201100 11013KT 4SM RA OVC008 WS020/13040KT
     FM201400 21007KT P6SM OVC008
     FM201700 20006KT P6SM BKN250=



000
FTUS41 KLWX 191527 AAB
TAFDCA
TAF AMD
KDCA 191527Z 1915/2012 09013G20KT P6SM OVC200
     FM192200 09012G22KT P6SM -RA OVC090
     FM200000 09013G25KT P6SM -RA OVC020
     FM200100 09015G23KT 5SM RA OVC020
     FM200300 09017G25KT 5SM RA OVC010
     FM200500 11016G26KT 3SM +RA OVC008 WS020/13040KT
     FM201100 19009KT 4SM -RA OVC003=



000
FTUS41 KLWX 191527 AAB
TAFIAD
TAF AMD
KIAD 191527Z 1915/2018 10012G20KT P6SM OVC200
     FM192200 09012G18KT 5SM -RA OVC035
     FM200100 09012G22KT 3SM RA OVC015
     FM200400 10012G25KT 3SM +RA OVC008 WS020/12040KT
     FM200700 09011KT 3SM +RA OVC003 WS020/13040KT
     FM201000 12008KT 5SM -RA OVC003 WS020/14030KT
     FM201300 24005KT P6SM BKN015
     FM201600 22006KT P6SM BKN250=



000
FTUS41 KLWX 191527 AAB
TAFDCA
TAF AMD
KDCA 191527Z 1915/2012 09013G20KT P6SM OVC200
     FM192200 09012G22KT P6SM -RA OVC090
     FM200000 09013G25KT P6SM -RA OVC020
     FM200100 09015G23KT 5SM RA OVC020
     FM200300 09017G25KT 5SM RA OVC010
     FM200500 11016G26KT 3SM +RA OVC008 WS020/13040KT
     FM201100 19009KT 4SM -RA OVC003=



000
FTUS41 KLWX 191527 AAB
TAFBWI
TAF AMD
KBWI 191527Z 1915/2018 09014G22KT P6SM OVC200
     FM192200 10012G18KT P6SM -RA BKN090
     FM200300 09016G25KT P6SM -RA OVC010
     FM200500 09018G26KT 3SM +RA OVC008
     FM201100 11013KT 4SM RA OVC008 WS020/13040KT
     FM201400 21007KT P6SM OVC008
     FM201700 20006KT P6SM BKN250=



000
FTUS41 KLWX 191527 AAB
TAFIAD
TAF AMD
KIAD 191527Z 1915/2018 10012G20KT P6SM OVC200
     FM192200 09012G18KT 5SM -RA OVC035
     FM200100 09012G22KT 3SM RA OVC015
     FM200400 10012G25KT 3SM +RA OVC008 WS020/12040KT
     FM200700 09011KT 3SM +RA OVC003 WS020/13040KT
     FM201000 12008KT 5SM -RA OVC003 WS020/14030KT
     FM201300 24005KT P6SM BKN015
     FM201600 22006KT P6SM BKN250=



000
FTUS41 KLWX 191142 RRA
TAFIAD
TAF
KIAD 191142Z 1912/2018 08008KT P6SM OVC250
     FM191500 10012G20KT P6SM OVC200
     FM192200 10010KT 5SM -RA OVC035
     FM200100 09012KT 3SM RA OVC015
     FM200400 10012G22KT 3SM +RA OVC008 WS020/12040KT
     FM200700 09009KT 3SM +RA OVC003 WS020/13040KT
     FM201000 12008KT 5SM -RA OVC003 WS020/14030KT
     FM201400 24005KT P6SM BKN015
     FM201600 22006KT P6SM BKN250=



000
FTUS41 KLWX 191142 RRA
TAFMTN
TAF
KMTN 191142Z 1912/2012 06010KT P6SM BKN200
     FM191500 10011KT P6SM BKN200
     FM200100 10014KT P6SM -RA OVC025
     FM200300 10017G25KT P6SM -RA OVC010
     FM200600 09020G28KT 3SM +RA OVC008
     FM201000 11015KT 3SM RA OVC008 WS020/13040KT=



000
FTUS41 KLWX 191142 RRA
TAFBWI
TAF
KBWI 191142Z 1912/2018 07009KT P6SM OVC250
     FM191400 09014G22KT P6SM OVC200
     FM192200 10012G18KT P6SM -RA BKN090
     FM200300 09016G25KT P6SM -RA OVC010
     FM200500 09018G26KT 3SM +RA OVC008
     FM201000 11013KT 4SM RA OVC008 WS020/13040KT
     FM201300 21007KT P6SM OVC008
     FM201700 20006KT P6SM BKN250=



000
FTUS41 KLWX 191142 RRA
TAFDCA
TAF
KDCA 191142Z 1912/2012 07011KT P6SM OVC250
     FM191300 10013G20KT P6SM OVC200
     FM192200 10011KT P6SM -RA OVC090
     FM200000 09013KT P6SM -RA OVC020
     FM200100 09015G23KT 5SM RA OVC020
     FM200300 09017G25KT 5SM RA OVC010
     FM200700 11016G26KT 3SM +RA OVC008 WS020/13040KT
     FM201100 19009KT 4SM -RA OVC003=



000
FTUS41 KLWX 191142 RRA
TAFIAD
TAF
KIAD 191142Z 1912/2018 08008KT P6SM OVC250
     FM191500 10012G20KT P6SM OVC200
     FM192200 10010KT 5SM -RA OVC035
     FM200100 09012KT 3SM RA OVC015
     FM200400 10012G22KT 3SM +RA OVC008 WS020/12040KT
     FM200700 09009KT 3SM +RA OVC003 WS020/13040KT
     FM201000 12008KT 5SM -RA OVC003 WS020/14030KT
     FM201400 24005KT P6SM BKN015
     FM201600 22006KT P6SM BKN250=



000
FTUS41 KLWX 191142 RRA
TAFBWI
TAF
KBWI 191142Z 1912/2018 07009KT P6SM OVC250
     FM191400 09014G22KT P6SM OVC200
     FM192200 10012G18KT P6SM -RA BKN090
     FM200300 09016G25KT P6SM -RA OVC010
     FM200500 09018G26KT 3SM +RA OVC008
     FM201000 11013KT 4SM RA OVC008 WS020/13040KT
     FM201300 21007KT P6SM OVC008
     FM201700 20006KT P6SM BKN250=



000
FTUS41 KLWX 191142 RRA
TAFMTN
TAF
KMTN 191142Z 1912/2012 06010KT P6SM BKN200
     FM191500 10011KT P6SM BKN200
     FM200100 10014KT P6SM -RA OVC025
     FM200300 10017G25KT P6SM -RA OVC010
     FM200600 09020G28KT 3SM +RA OVC008
     FM201000 11015KT 3SM RA OVC008 WS020/13040KT=



000
FTUS41 KLWX 191142 RRA
TAFMRB
TAF
KMRB 191142Z 1912/2012 06007KT P6SM BKN250
     FM191500 11012KT P6SM BKN200
     FM192200 10009KT 6SM -RA OVC090
     FM200100 09010KT 3SM RA OVC020
     FM200500 06012KT 3SM RA OVC003 WS020/12040KT
     FM200800 06009KT 3SM RA OVC003 WS020/13040KT
     FM201000 03006KT 3SM -RA OVC003 WS020/14030KT
     FM201100 34006KT 3SM -RA OVC003=



000
FTUS41 KLWX 191142 RRA
TAFCHO
TAF
KCHO 191142Z 1912/2012 05006KT P6SM BKN200
     FM191900 06007KT 5SM -RA OVC090
     FM192100 07007KT 3SM RA OVC025
     FM192300 07011KT 3SM RA OVC020
     FM200100 07015KT 2SM +RA OVC008
     FM200300 06016G25KT 2SM +RA OVC003 WS020/12035KT
     FM200700 15006KT 2SM RA OVC003
     FM200900 22004KT 2SM RA OVC003
     FM201000 VRB03KT P6SM OVC003=



000
FTUS41 KLWX 191142 RRA
TAFCHO
TAF
KCHO 191142Z 1912/2012 05006KT P6SM BKN200
     FM191900 06007KT 5SM -RA OVC090
     FM192100 07007KT 3SM RA OVC025
     FM192300 07011KT 3SM RA OVC020
     FM200100 07015KT 2SM +RA OVC008
     FM200300 06016G25KT 2SM +RA OVC003 WS020/12035KT
     FM200700 15006KT 2SM RA OVC003
     FM200900 22004KT 2SM RA OVC003
     FM201000 VRB03KT P6SM OVC003=



000
FTUS41 KLWX 191142 RRA
TAFDCA
TAF
KDCA 191142Z 1912/2012 07011KT P6SM OVC250
     FM191300 10013G20KT P6SM OVC200
     FM192200 10011KT P6SM -RA OVC090
     FM200000 09013KT P6SM -RA OVC020
     FM200100 09015G23KT 5SM RA OVC020
     FM200300 09017G25KT 5SM RA OVC010
     FM200700 11016G26KT 3SM +RA OVC008 WS020/13040KT
     FM201100 19009KT 4SM -RA OVC003=



000
FTUS41 KLWX 191142 RRA
TAFMRB
TAF
KMRB 191142Z 1912/2012 06007KT P6SM BKN250
     FM191500 11012KT P6SM BKN200
     FM192200 10009KT 6SM -RA OVC090
     FM200100 09010KT 3SM RA OVC020
     FM200500 06012KT 3SM RA OVC003 WS020/12040KT
     FM200800 06009KT 3SM RA OVC003 WS020/13040KT
     FM201000 03006KT 3SM -RA OVC003 WS020/14030KT
     FM201100 34006KT 3SM -RA OVC003=



000
FTUS41 KLWX 190859 AAA
TAFIAD
TAF AMD
KIAD 190859Z 1909/2012 05005KT P6SM BKN250
     FM191500 09011KT P6SM SCT200
     FM192200 10010KT P6SM -RA OVC090
     FM200100 09012KT 5SM -RA OVC035
     FM200400 09015KT 3SM RA BR OVC010
     FM200700 10012KT 3SM RA BR OVC008
     FM201100 21006KT P6SM OVC008=



000
FTUS41 KLWX 190859 AAA
TAFDCA
TAF AMD
KDCA 190859Z 1909/2006 06007KT P6SM BKN250
     FM191500 09012KT P6SM SCT200
     FM192200 10011KT P6SM -RA OVC090
     FM200100 09015KT 5SM -RA OVC035
     FM200400 09017KT 3SM RA BR OVC010=



000
FTUS41 KLWX 190859 AAA
TAFBWI
TAF AMD
KBWI 190859Z 1909/2012 05009KT P6SM BKN200
     FM191700 10012KT P6SM SCT200
     FM192200 10012KT P6SM -RA OVC090
     FM200200 09015KT 5SM -RA OVC025
     FM200400 09017KT 3SM RA BR OVC010=



000
FTUS41 KLWX 190859 AAA
TAFBWI
TAF AMD
KBWI 190859Z 1909/2012 05009KT P6SM BKN200
     FM191700 10012KT P6SM SCT200
     FM192200 10012KT P6SM -RA OVC090
     FM200200 09015KT 5SM -RA OVC025
     FM200400 09017KT 3SM RA BR OVC010=



000
FTUS41 KLWX 190859 AAA
TAFDCA
TAF AMD
KDCA 190859Z 1909/2006 06007KT P6SM BKN250
     FM191500 09012KT P6SM SCT200
     FM192200 10011KT P6SM -RA OVC090
     FM200100 09015KT 5SM -RA OVC035
     FM200400 09017KT 3SM RA BR OVC010=



000
FTUS41 KLWX 190538
TAFMTN
TAF
KMTN 190538Z 1906/2006 NIL=



000
FTUS41 KLWX 190538
TAFBWI
TAF
KBWI 190538Z 1906/2012 04005KT P6SM BKN200
     FM191200 06009KT P6SM SCT200
     FM191700 10012KT P6SM SCT200
     FM192200 10012KT P6SM -RA OVC090
     FM200200 09015KT 5SM -RA OVC025
     FM200400 09017KT 3SM RA BR OVC010=



000
FTUS41 KLWX 190538
TAFIAD
TAF
KIAD 190538Z 1906/2012 17004KT P6SM BKN250
     FM190700 05005KT P6SM BKN250
     FM191500 09011KT P6SM SCT200
     FM192200 10010KT P6SM -RA OVC090
     FM200100 09012KT 5SM -RA OVC035
     FM200400 09015KT 3SM RA BR OVC010
     FM200700 10012KT 3SM RA BR OVC008
     FM201100 21006KT P6SM OVC008=



000
FTUS41 KLWX 190538
TAFDCA
TAF
KDCA 190538Z 1906/2006 18004KT P6SM BKN250
     FM190700 06007KT P6SM BKN250
     FM191500 09012KT P6SM SCT200
     FM192200 10011KT P6SM -RA OVC090
     FM200100 09015KT 5SM -RA OVC035
     FM200400 09017KT 3SM RA BR OVC010=



000
FTUS41 KLWX 190538
TAFCHO
TAF
KCHO 190538Z 1906/2006 00000KT P6SM SCT250
     FM191100 04007KT P6SM BKN250
     FM191400 06011KT P6SM BKN130
     FM191700 06010KT P6SM -RA OVC090
     FM192200 07009KT 3SM -RA OVC025
     FM200100 07015KT 2SM RA BR OVC010
     FM200300 06016KT 2SM RA BR OVC004=



000
FTUS41 KLWX 190538
TAFMRB
TAF
KMRB 190538Z 1906/2006 24005KT P6SM BKN250
     FM190700 02005KT P6SM BKN250
     FM191500 09009KT P6SM SCT200
     FM192200 10009KT P6SM -RA OVC090
     FM200100 09010KT 5SM -RA OVC030
     FM200300 07012KT 5SM -RA OVC010=



000
FTUS41 KLWX 182333
TAFMRB
TAF
KMRB 182333Z 1900/1924 18005KT P6SM SKC
     FM190500 01007KT P6SM SKC
     FM191800 10008KT P6SM BKN110
     FM192100 08007KT P6SM OVC025
     FM192200 08006KT 6SM RA OVC025=



000
FTUS41 KLWX 182333
TAFIAD
TAF
KIAD 182333Z 1900/2006 00000KT P6SM FEW180 OVC250
     FM190500 36007KT P6SM SCT250
     FM191200 05011KT P6SM SCT250
     FM191500 09010KT P6SM SCT250
     FM191800 11010G21KT P6SM BKN100
     FM192200 09006KT 6SM -RA OVC025
     FM200000 10006KT 2SM -RA OVC008
     FM200400 09018KT 1SM RA OVC003=



000
FTUS41 KLWX 182333
TAFBWI
TAF
KBWI 182333Z 1900/2006 29006KT P6SM OVC250
     FM190400 32006KT P6SM SKC
     FM190600 04010KT P6SM SKC
     FM191500 08011KT P6SM SCT250
     FM192100 10011G19KT P6SM BKN050
     FM192200 10012G20KT 6SM -RA BKN030
     FM200300 07019KT 6SM -RA OVC008
     FM200400 07020KT 2SM RA OVC008=



000
FTUS41 KLWX 182333
TAFCHO
TAF
KCHO 182333Z 1900/1924 10005KT P6SM SKC
     FM190800 03008KT P6SM FEW250
     FM191400 06012KT P6SM BKN130
     FM191600 06011KT 6SM -RA BKN070
     FM191800 05007KT 3SM -RA BKN025
     FM192000 VRB03KT 2SM -RA OVC015
     FM192100 VRB03KT 2SM RA OVC008=



000
FTUS41 KLWX 182333
TAFDCA
TAF
KDCA 182333Z 1900/1924 35004KT P6SM OVC250
     FM190500 04008KT P6SM SKC
     FM191200 04012KT P6SM FEW250
     FM191900 11008KT P6SM BKN110
     FM192100 10008KT P6SM BKN020
     FM192200 10009KT 5SM -RA BKN020=



000
FTUS41 KLWX 182333
TAFMTN
TAF
KMTN 182333Z 1900/1924 14005KT P6SM BKN250
     FM190400 35009KT P6SM SKC
     FM191200 04007KT P6SM FEW250
     FM192000 10006KT P6SM BKN200
      AMD NOT SKED 1902/1912=



000
FTUS41 KLWX 182333
TAFBWI
TAF
KBWI 182333Z 1900/2006 29006KT P6SM OVC250
     FM190400 32006KT P6SM SKC
     FM190600 04010KT P6SM SKC
     FM191500 08011KT P6SM SCT250
     FM192100 10011G19KT P6SM BKN050
     FM192200 10012G20KT 6SM -RA BKN030
     FM200300 07019KT 6SM -RA OVC008
     FM200400 07020KT 2SM RA OVC008=



000
FTUS41 KLWX 182333
TAFIAD
TAF
KIAD 182333Z 1900/2006 00000KT P6SM FEW180 OVC250
     FM190500 36007KT P6SM SCT250
     FM191200 05011KT P6SM SCT250
     FM191500 09010KT P6SM SCT250
     FM191800 11010G21KT P6SM BKN100
     FM192200 09006KT 6SM -RA OVC025
     FM200000 10006KT 2SM -RA OVC008
     FM200400 09018KT 1SM RA OVC003=



000
FTUS41 KLWX 182333
TAFCHO
TAF
KCHO 182333Z 1900/1924 10005KT P6SM SKC
     FM190800 03008KT P6SM FEW250
     FM191400 06012KT P6SM BKN130
     FM191600 06011KT 6SM -RA BKN070
     FM191800 05007KT 3SM -RA BKN025
     FM192000 VRB03KT 2SM -RA OVC015
     FM192100 VRB03KT 2SM RA OVC008=



000
FTUS41 KLWX 182333
TAFDCA
TAF
KDCA 182333Z 1900/1924 35004KT P6SM OVC250
     FM190500 04008KT P6SM SKC
     FM191200 04012KT P6SM FEW250
     FM191900 11008KT P6SM BKN110
     FM192100 10008KT P6SM BKN020
     FM192200 10009KT 5SM -RA BKN020=



000
FTUS41 KLWX 182333
TAFMRB
TAF
KMRB 182333Z 1900/1924 18005KT P6SM SKC
     FM190500 01007KT P6SM SKC
     FM191800 10008KT P6SM BKN110
     FM192100 08007KT P6SM OVC025
     FM192200 08006KT 6SM RA OVC025=



000
FTUS41 KLWX 182333
TAFMTN
TAF
KMTN 182333Z 1900/1924 14005KT P6SM BKN250
     FM190400 35009KT P6SM SKC
     FM191200 04007KT P6SM FEW250
     FM192000 10006KT P6SM BKN200
      AMD NOT SKED 1902/1912=



000
FTUS41 KLWX 182034 AAA
TAFBWI
TAF AMD
KBWI 182034Z 1821/1924 28005KT P6SM FEW250
     FM190600 04010KT P6SM SKC
     FM191400 08012KT P6SM FEW250
     FM192100 11014KT P6SM BKN050
     FM192200 11014KT 6SM -RA BKN050=



000
FTUS41 KLWX 182034 AAA
TAFIAD
TAF AMD
KIAD 182034Z 1821/1924 31005KT P6SM FEW250
     FM190700 04009KT P6SM SKC
     FM191400 09011KT P6SM SCT250
     FM191800 12015KT P6SM BKN100
     FM192100 11014KT P6SM BKN025
     FM192200 11015KT 6SM -RA OVC025=



000
FTUS41 KLWX 182034 AAA
TAFDCA
TAF AMD
KDCA 182034Z 1821/1918 28005KT P6SM FEW250
     FM190100 00000KT P6SM SKC
     FM190500 04008KT P6SM SKC
     FM191300 07012KT P6SM SCT250=



000
FTUS41 KLWX 181732
TAFBWI
TAF
KBWI 181732Z 1818/1924 16006KT P6SM FEW250
     FM190200 VRB03KT P6SM SKC
     FM190800 04012G18KT P6SM SKC
     FM191300 09013G20KT P6SM FEW250
     FM191800 11015G22KT P6SM SCT150
     FM192100 11014KT P6SM BKN080
     FM192300 11014KT 6SM -RA BKN050=



000
FTUS41 KLWX 181732
TAFDCA
TAF
KDCA 181732Z 1818/1918 02004KT P6SM FEW250
     FM182100 29005KT P6SM FEW250
     FM190100 VRB04KT P6SM SKC
     FM190500 04008KT P6SM SKC
     FM191300 08012G19KT P6SM SCT250=



000
FTUS41 KLWX 181732
TAFMRB
TAF
KMRB 181732Z 1818/1918 36004KT P6SM FEW250
     FM182000 30004KT P6SM FEW250
     FM190200 VRB04KT P6SM SKC
     FM190500 01007KT P6SM SKC
     FM191500 10012G18KT P6SM SCT250=



000
FTUS41 KLWX 181732
TAFCHO
TAF
KCHO 181732Z 1818/1918 06005KT P6SM FEW250
     FM190900 03010KT P6SM SCT250
     FM191400 07010KT P6SM BKN130
     FM191600 09010KT 6SM -RA BKN060=



000
FTUS41 KLWX 181732
TAFIAD
TAF
KIAD 181732Z 1818/1924 32004KT P6SM FEW250
     FM190600 04008KT P6SM SKC
     FM191400 09011KT P6SM SCT250
     FM191800 12015G22KT P6SM BKN100
     FM192100 11015G24KT 6SM -RA OVC025=



000
FTUS41 KLWX 181732
TAFMTN
TAF
KMTN 181732Z 1818/1918 16008KT P6SM FEW250
     FM190000 31005KT P6SM SKC
     FM190400 35009KT P6SM SKC
     FM190600 03011G18KT P6SM SKC
     FM191400 08012G22KT P6SM FEW250=



000
FTUS41 KLWX 181508 AAA
TAFBWI
TAF AMD
KBWI 181508Z 1815/1918 05005KT P6SM FEW250
     FM181600 33006KT P6SM SCT250
     FM182100 29006KT P6SM FEW250
     FM190300 02010KT P6SM SKC
     FM191300 08008KT P6SM FEW250=



000
FTUS41 KLWX 181508 AAA
TAFIAD
TAF AMD
KIAD 181508Z 1815/1918 35005KT P6SM SKC
     FM190400 02011KT P6SM SKC
     FM191500 09009KT P6SM SCT250=



000
FTUS41 KLWX 181508 AAA
TAFDCA
TAF AMD
KDCA 181508Z 1815/1912 35006KT P6SM SKC
     FM182200 32005KT P6SM SKC
     FM190400 02011KT P6SM SKC=



000
FTUS41 KLWX 181140
TAFMTN
TAF
KMTN 181140Z 1812/1912 33005KT P6SM FEW250
     FM181800 15006KT P6SM FEW250
     FM190200 01011KT P6SM SKC
     FM190500 03008KT P6SM SKC=



000
FTUS41 KLWX 181140
TAFIAD
TAF
KIAD 181140Z 1812/1918 33005KT P6SM SKC
     FM190400 02011KT P6SM SKC
     FM191500 09009KT P6SM SCT250=



000
FTUS41 KLWX 181140
TAFMRB
TAF
KMRB 181140Z 1812/1912 VRB03KT 4SM BR SKC
     FM181300 34006KT P6SM SKC
     FM190400 01006KT P6SM FEW250=



000
FTUS41 KLWX 181140
TAFDCA
TAF
KDCA 181140Z 1812/1912 35006KT P6SM SKC
     FM190400 02011KT P6SM SKC=



000
FTUS41 KLWX 181140
TAFCHO
TAF
KCHO 181140Z 1812/1912 VRB04KT P6SM SCT080
     FM181400 07004KT P6SM FEW060=



000
FTUS41 KLWX 181140
TAFBWI
TAF
KBWI 181140Z 1812/1918 34006KT P6SM SKC
     FM182100 29006KT P6SM FEW250
     FM190300 02010KT P6SM SKC
     FM191300 08008KT P6SM FEW250=



000
FTUS41 KLWX 181140
TAFDCA
TAF
KDCA 181140Z 1812/1912 35006KT P6SM SKC
     FM190400 02011KT P6SM SKC=



000
FTUS41 KLWX 181140
TAFMTN
TAF
KMTN 181140Z 1812/1912 33005KT P6SM FEW250
     FM181800 15006KT P6SM FEW250
     FM190200 01011KT P6SM SKC
     FM190500 03008KT P6SM SKC=



000
FTUS41 KLWX 181140
TAFMRB
TAF
KMRB 181140Z 1812/1912 VRB03KT 4SM BR SKC
     FM181300 34006KT P6SM SKC
     FM190400 01006KT P6SM FEW250=



000
FTUS41 KLWX 181140
TAFBWI
TAF
KBWI 181140Z 1812/1918 34006KT P6SM SKC
     FM182100 29006KT P6SM FEW250
     FM190300 02010KT P6SM SKC
     FM191300 08008KT P6SM FEW250=



000
FTUS41 KLWX 181140
TAFCHO
TAF
KCHO 181140Z 1812/1912 VRB04KT P6SM SCT080
     FM181400 07004KT P6SM FEW060=



000
FTUS41 KLWX 181140
TAFIAD
TAF
KIAD 181140Z 1812/1918 33005KT P6SM SKC
     FM190400 02011KT P6SM SKC
     FM191500 09009KT P6SM SCT250=



000
FTUS41 KLWX 181030 AAA
TAFMRB
TAF AMD
KMRB 181030Z 1811/1906 00000KT 1SM BR SCT250
     FM181300 33005KT P6SM FEW250
     FM190400 36006KT P6SM FEW250=



000
FTUS41 KLWX 181030 AAD
TAFCHO
TAF AMD
KCHO 181030Z 1811/1906 00000KT 3SM BR SCT002
     FM181400 03004KT P6SM SCT060=



000
FTUS41 KLWX 181030 AAD
TAFCHO
TAF AMD
KCHO 181030Z 1811/1906 00000KT 3SM BR SCT002
     FM181400 03004KT P6SM SCT060=



000
FTUS41 KLWX 181030 AAA
TAFMRB
TAF AMD
KMRB 181030Z 1811/1906 00000KT 1SM BR SCT250
     FM181300 33005KT P6SM FEW250
     FM190400 36006KT P6SM FEW250=



000
FTUS41 KLWX 180859 AAC
TAFCHO
TAF AMD
KCHO 180859Z 1809/1906 00000KT 1/2SM FG BKN002
     FM181200 VRB03KT 3SM BR SCT050
     FM181400 03004KT P6SM SCT060=



000
FTUS41 KLWX 180859 AAC
TAFCHO
TAF AMD
KCHO 180859Z 1809/1906 00000KT 1/2SM FG BKN002
     FM181200 VRB03KT 3SM BR SCT050
     FM181400 03004KT P6SM SCT060=



000
FTUS41 KLWX 180857 AAA
TAFIAD
TAF AMD
KIAD 180857Z 1809/1912 33004KT P6SM SCT250
     FM190700 02008KT P6SM FEW250=



000
FTUS41 KLWX 180857 AAA
TAFBWI
TAF AMD
KBWI 180857Z 1809/1912 35005KT P6SM SCT250
     FM182100 29006KT P6SM FEW250
     FM190200 36004KT P6SM SKC
     FM190500 03008KT P6SM SKC=



000
FTUS41 KLWX 180857 AAA
TAFDCA
TAF AMD
KDCA 180857Z 1809/1906 33004KT P6SM SCT250
     FM181200 36004KT P6SM FEW250=



000
FTUS41 KLWX 180704 AAB
TAFCHO
TAF AMD
KCHO 180704Z 1807/1906 00000KT 1SM BR SCT001
     FM181200 VRB03KT 3SM BR SCT050
     FM181400 03004KT P6SM SCT060=



000
FTUS41 KLWX 180629 AAA
TAFCHO
TAF AMD
KCHO 180629Z 1806/1906 30003KT 1/4SM FG BKN001
     FM180800 35003KT 1/2SM FG SCT001
     FM181200 VRB03KT 3SM BR SCT050
     FM181400 03004KT P6SM SCT060=



000
FTUS41 KLWX 180629 AAA
TAFCHO
TAF AMD
KCHO 180629Z 1806/1906 30003KT 1/4SM FG BKN001
     FM180800 35003KT 1/2SM FG SCT001
     FM181200 VRB03KT 3SM BR SCT050
     FM181400 03004KT P6SM SCT060=



000
FTUS41 KLWX 180534
TAFCHO
TAF
KCHO 180534Z 1806/1906 30003KT 1SM BR BKN060
     FM181000 35003KT 2SM BR SCT060
     FM181200 VRB03KT 3SM BR SCT050
     FM181400 03004KT P6SM SCT060=



000
FTUS41 KLWX 180534
TAFDCA
TAF
KDCA 180534Z 1806/1906 33004KT P6SM FEW080 BKN200
     FM180900 35004KT P6SM SCT050
     FM181200 36004KT P6SM FEW250=



000
FTUS41 KLWX 180534
TAFBWI
TAF
KBWI 180534Z 1806/1912 VRB03KT P6SM BKN060
     FM180900 35005KT P6SM SCT060
     FM182100 29006KT P6SM FEW250
     FM190200 36004KT P6SM SKC
     FM190500 03008KT P6SM SKC=



000
FTUS41 KLWX 180534
TAFMRB
TAF
KMRB 180534Z 1806/1906 00000KT P6SM SCT060
     FM181200 33005KT P6SM FEW250
     FM190400 36006KT P6SM FEW250=



000
FTUS41 KLWX 180534
TAFMTN
TAF
KMTN 180534Z 1806/1906 NIL=



000
FTUS41 KLWX 180534
TAFIAD
TAF
KIAD 180534Z 1806/1912 33004KT P6SM FEW060 BKN200
     FM180900 35004KT P6SM SCT050
     FM181100 34004KT P6SM SCT250
     FM190700 02008KT P6SM FEW250=



000
FTUS41 KLWX 180534
TAFDCA
TAF
KDCA 180534Z 1806/1906 33004KT P6SM FEW080 BKN200
     FM180900 35004KT P6SM SCT050
     FM181200 36004KT P6SM FEW250=



000
FTUS41 KLWX 180534
TAFCHO
TAF
KCHO 180534Z 1806/1906 30003KT 1SM BR BKN060
     FM181000 35003KT 2SM BR SCT060
     FM181200 VRB03KT 3SM BR SCT050
     FM181400 03004KT P6SM SCT060=



000
FTUS41 KLWX 180534
TAFMRB
TAF
KMRB 180534Z 1806/1906 00000KT P6SM SCT060
     FM181200 33005KT P6SM FEW250
     FM190400 36006KT P6SM FEW250=



000
FTUS41 KLWX 180534
TAFIAD
TAF
KIAD 180534Z 1806/1912 33004KT P6SM FEW060 BKN200
     FM180900 35004KT P6SM SCT050
     FM181100 34004KT P6SM SCT250
     FM190700 02008KT P6SM FEW250=



000
FTUS41 KLWX 180534
TAFMTN
TAF
KMTN 180534Z 1806/1906 NIL=



000
FTUS41 KLWX 180534
TAFBWI
TAF
KBWI 180534Z 1806/1912 VRB03KT P6SM BKN060
     FM180900 35005KT P6SM SCT060
     FM182100 29006KT P6SM FEW250
     FM190200 36004KT P6SM SKC
     FM190500 03008KT P6SM SKC=



    US Dept of Commerce
    National Oceanic and Atmospheric Administration
    National Weather Service
    1325 East West Highway
    Silver Spring, MD 20910
    Page Author: NWS Internet Services Team
Disclaimer
Information Quality
Credits
Glossary
Privacy Policy
Freedom of Information Act (FOIA)
About Us
Career Opportunities